Time;durP1;ratioP1;P1;durP2;ratioP2;P2;SDS_P1;SDS_P2;PMS_P1;PMS_P2;Temp;Humidity;BMP_temperature;BMP_pressure;BME280_temperature;BME280_humidity;BME280_pressure;Samples;Min_cycle;Max_cycle;Signal;HPM_P1;HPM_P2
2022/05/12 00:00:27;;;;;;;5.63;2.40;;;23.40;55.60;25.10;100539.00;;;;5027722;28;20167;-54
2022/05/12 00:02:53;;;;;;;4.40;2.53;;;23.40;55.60;25.10;100535.00;;;;5026607;28;20189;-55
2022/05/12 00:05:19;;;;;;;4.53;2.40;;;23.50;56.00;25.10;100549.00;;;;5027713;28;20206;-54
2022/05/12 00:07:45;;;;;;;6.53;2.70;;;23.60;55.90;25.10;100553.00;;;;5027753;28;20326;-54
2022/05/12 00:10:15;;;;;;;4.43;2.30;;;23.60;55.70;25.10;100542.00;;;;5027630;28;20209;-54
2022/05/12 00:12:41;;;;;;;3.63;2.57;;;23.50;55.70;25.10;100534.00;;;;5027493;28;20261;-54
2022/05/12 00:15:13;;;;;;;4.27;2.60;;;23.40;55.80;25.00;100535.00;;;;5027697;28;20194;-54
2022/05/12 00:17:39;;;;;;;3.63;2.20;;;23.40;56.00;25.00;100521.00;;;;5025886;28;20213;-54
2022/05/12 00:20:06;;;;;;;4.90;2.70;;;23.40;55.70;25.00;100524.00;;;;5027292;28;20764;-53
2022/05/12 00:22:31;;;;;;;3.73;2.57;;;23.50;55.70;25.00;100526.00;;;;5026966;28;20209;-54
2022/05/12 00:24:57;;;;;;;3.43;2.40;;;23.40;56.00;25.00;100538.00;;;;5027045;28;20195;-54
2022/05/12 00:27:23;;;;;;;3.70;2.50;;;23.40;56.20;24.90;100540.00;;;;5027412;28;20175;-54
2022/05/12 00:29:49;;;;;;;3.17;2.40;;;23.40;56.20;24.90;100542.00;;;;5027074;28;20167;-54
2022/05/12 00:32:14;;;;;;;5.53;2.70;;;23.40;55.90;24.90;100542.00;;;;5027183;28;20232;-55
2022/05/12 00:34:40;;;;;;;5.83;2.73;;;23.20;56.10;24.80;100541.00;;;;5027505;28;20198;-54
2022/05/12 00:37:06;;;;;;;5.00;2.60;;;23.20;56.30;24.80;100527.00;;;;5026809;28;20171;-54
2022/05/12 00:39:31;;;;;;;4.57;2.40;;;23.20;56.20;24.80;100533.00;;;;5027119;28;20203;-54
2022/05/12 00:41:57;;;;;;;4.23;2.30;;;23.20;57.10;24.80;100531.00;;;;5027332;28;20547;-55
2022/05/12 00:44:23;;;;;;;5.27;2.67;;;23.20;56.30;24.80;100539.00;;;;5027321;28;20175;-54
2022/05/12 00:46:50;;;;;;;4.63;2.67;;;23.20;56.30;24.80;100553.00;;;;5027177;28;20240;-55
2022/05/12 00:49:34;;;;;;;5.50;2.70;;;23.20;56.30;24.70;100538.00;;;;5026812;28;20179;-55
2022/05/12 00:52:15;;;;;;;4.87;2.60;;;23.20;56.70;24.70;100539.00;;;;5025539;28;20198;-54
2022/05/12 00:55:01;;;;;;;5.83;2.63;;;23.00;56.90;24.60;100563.00;;;;5025779;28;20187;-55
2022/05/12 00:57:34;;;;;;;3.50;2.50;;;23.00;56.80;24.60;100558.00;;;;5025440;28;20159;-54
2022/05/12 00:59:59;;;;;;;4.33;2.80;;;22.90;56.90;24.60;100564.00;;;;5025429;28;20612;-55
2022/05/12 01:02:26;;;;;;;5.03;2.60;;;22.90;57.10;24.50;100571.00;;;;5025349;28;20175;-54
2022/05/12 01:04:52;;;;;;;4.47;2.60;;;22.90;57.10;24.50;100579.00;;;;5025721;28;20580;-55
2022/05/12 01:07:17;;;;;;;6.10;2.87;;;23.00;56.80;24.50;100576.00;;;;5025265;28;20174;-54
2022/05/12 01:09:43;;;;;;;4.13;2.73;;;22.90;56.90;24.50;100591.00;;;;5026751;28;20170;-53
2022/05/12 01:12:10;;;;;;;3.20;2.40;;;22.80;57.10;24.50;100593.00;;;;5025372;28;20926;-53
2022/05/12 01:14:36;;;;;;;4.30;2.47;;;22.80;57.20;24.50;100588.00;;;;5026402;28;20221;-53
2022/05/12 01:17:02;;;;;;;4.27;2.60;;;22.90;57.20;24.50;100590.00;;;;5026196;28;20182;-54
2022/05/12 01:19:39;;;;;;;3.07;2.50;;;23.00;57.00;24.50;100602.00;;;;5026267;28;20175;-54
2022/05/12 01:22:21;;;;;;;4.63;2.60;;;23.10;56.90;24.50;100591.00;;;;5026348;28;20240;-53
2022/05/12 01:24:47;;;;;;;4.00;2.60;;;23.10;56.70;24.50;100610.00;;;;5026444;28;20203;-53
2022/05/12 01:27:22;;;;;;;4.50;2.70;;;23.10;56.70;24.50;100610.00;;;;5025892;28;20182;-53
2022/05/12 01:29:54;;;;;;;3.90;2.60;;;23.10;56.50;24.50;100602.00;;;;5026365;28;20770;-53
2022/05/12 01:32:23;;;;;;;3.67;2.43;;;23.10;56.50;24.50;100605.00;;;;5044135;28;20195;-56
2022/05/12 01:34:49;;;;;;;5.27;2.83;;;23.10;56.10;24.50;100609.00;;;;5042068;28;20195;-55
2022/05/12 01:37:14;;;;;;;4.43;2.43;;;23.20;56.20;24.50;100608.00;;;;5041009;28;20282;-54
2022/05/12 01:39:40;;;;;;;3.97;2.40;;;23.20;55.10;24.30;100607.00;;;;5026036;28;20163;-54
2022/05/12 01:42:08;;;;;;;4.80;2.60;;;23.10;55.70;24.50;100604.00;;;;5026189;28;20777;-54
2022/05/12 01:44:34;;;;;;;4.17;2.90;;;23.10;55.80;24.50;100564.00;;;;5024975;28;20187;-53
2022/05/12 01:46:59;;;;;;;4.23;2.67;;;22.90;55.40;24.40;100606.00;;;;5025798;28;20215;-54
2022/05/12 01:49:25;;;;;;;4.47;3.00;;;22.90;55.00;24.40;100615.00;;;;5025523;28;20685;-54
2022/05/12 01:51:55;;;;;;;4.13;2.50;;;22.90;55.00;24.40;100628.00;;;;5024747;28;20206;-54
2022/05/12 01:54:22;;;;;;;3.60;2.50;;;22.90;54.60;24.40;100626.00;;;;5025687;28;20182;-53
2022/05/12 01:56:47;;;;;;;4.20;2.80;;;22.90;54.40;24.30;100641.00;;;;5025477;28;20177;-54
2022/05/12 01:59:13;;;;;;;6.63;2.67;;;22.80;53.90;24.30;100650.00;;;;5025452;28;20175;-54
2022/05/12 02:01:39;;;;;;;3.97;2.60;;;22.80;54.00;24.30;100651.00;;;;5025897;28;20253;-54
2022/05/12 02:04:05;;;;;;;4.57;2.80;;;22.70;53.80;24.20;100663.00;;;;5025342;28;20214;-54
2022/05/12 02:06:32;;;;;;;4.77;2.67;;;22.70;53.70;24.20;100662.00;;;;5025317;28;20219;-54
2022/05/12 02:08:58;;;;;;;4.23;2.60;;;22.70;53.70;24.20;100673.00;;;;5024949;28;20178;-54
2022/05/12 02:11:24;;;;;;;3.90;2.47;;;22.80;53.70;24.20;100674.00;;;;5025452;28;20206;-53
2022/05/12 02:13:50;;;;;;;5.13;2.70;;;22.80;53.40;24.20;100672.00;;;;5026013;28;20178;-53
2022/05/12 02:16:16;;;;;;;3.93;2.70;;;22.90;53.20;24.20;100679.00;;;;5024979;28;20201;-53
2022/05/12 02:18:43;;;;;;;3.47;2.43;;;22.80;53.00;24.20;100685.00;;;;5025385;28;20175;-54
2022/05/12 02:21:09;;;;;;;3.33;2.60;;;22.80;52.90;24.20;100685.00;;;;5025776;28;20163;-53
2022/05/12 02:23:35;;;;;;;4.20;2.73;;;22.80;52.80;24.20;100702.00;;;;5025662;28;20171;-53
2022/05/12 02:26:00;;;;;;;4.63;2.80;;;22.80;52.90;24.20;100697.00;;;;5025147;28;20553;-53
2022/05/12 02:28:26;;;;;;;4.67;3.00;;;22.80;52.80;24.20;100700.00;;;;5024931;28;20178;-52
2022/05/12 02:30:52;;;;;;;3.53;2.50;;;22.80;52.60;24.20;100703.00;;;;5025116;28;20187;-53
2022/05/12 02:33:17;;;;;;;5.73;3.03;;;22.80;52.50;24.20;100709.00;;;;5025427;28;20325;-54
2022/05/12 02:35:43;;;;;;;6.57;3.27;;;22.90;52.60;24.20;100710.00;;;;5025419;28;20189;-55
2022/05/12 02:38:09;;;;;;;3.17;2.70;;;22.80;52.30;24.20;100712.00;;;;5025089;28;20591;-55
2022/05/12 02:40:35;;;;;;;3.63;2.50;;;22.90;52.20;24.20;100723.00;;;;5024864;28;20601;-53
2022/05/12 02:43:00;;;;;;;3.93;2.67;;;22.90;52.20;24.20;100720.00;;;;5025476;28;20175;-53
2022/05/12 02:45:27;;;;;;;3.10;2.33;;;23.00;52.10;24.20;100723.00;;;;5027043;28;20203;-54
2022/05/12 02:47:53;;;;;;;3.20;2.33;;;23.00;52.10;24.20;100732.00;;;;5029042;28;20655;-53
2022/05/12 02:50:18;;;;;;;4.53;2.93;;;22.90;52.10;24.20;100721.00;;;;5029051;28;20182;-54
2022/05/12 02:52:44;;;;;;;5.43;2.70;;;22.90;52.30;24.20;100736.00;;;;5028885;28;20202;-53
2022/05/12 02:55:10;;;;;;;3.83;2.40;;;22.80;52.50;24.20;100740.00;;;;5029181;28;20570;-53
2022/05/12 02:57:36;;;;;;;3.00;2.40;;;22.80;52.50;24.10;100740.00;;;;5028880;28;20163;-54
2022/05/12 03:00:05;;;;;;;3.97;2.50;;;22.80;52.30;24.10;100736.00;;;;5028988;28;20175;-52
2022/05/12 03:02:30;;;;;;;3.20;2.20;;;22.80;52.00;23.70;100751.00;;;;5028917;28;20186;-53
2022/05/12 03:04:56;;;;;;;2.97;2.40;;;22.80;52.00;24.10;100750.00;;;;5028678;28;20191;-53
2022/05/12 03:07:22;;;;;;;3.77;2.30;;;22.80;52.00;24.10;100743.00;;;;5028502;28;20171;-54
2022/05/12 03:09:47;;;;;;;2.87;2.10;;;22.70;51.90;24.10;100756.00;;;;5028468;28;20588;-52
2022/05/12 03:12:13;;;;;;;3.17;2.27;;;22.70;51.90;24.10;100764.00;;;;5028730;28;20194;-54
2022/05/12 03:14:39;;;;;;;3.27;2.10;;;22.70;51.80;24.00;100767.00;;;;5029100;28;20191;-53
2022/05/12 03:17:04;;;;;;;4.70;2.10;;;22.70;51.70;24.00;100770.00;;;;5028793;28;20158;-54
2022/05/12 03:19:31;;;;;;;2.90;1.87;;;22.70;51.60;24.00;100771.00;;;;5028566;28;20221;-53
2022/05/12 03:21:57;;;;;;;5.00;2.67;;;22.70;51.40;24.00;100782.00;;;;5028528;28;20174;-54
2022/05/12 03:24:23;;;;;;;3.73;2.30;;;22.70;51.30;24.00;100766.00;;;;5028602;28;20179;-55
2022/05/12 03:26:49;;;;;;;3.50;2.37;;;22.70;51.20;24.00;100782.00;;;;5028344;28;20164;-54
2022/05/12 03:29:15;;;;;;;5.73;2.23;;;22.70;51.20;24.00;100780.00;;;;5026803;28;20174;-54
2022/05/12 03:31:40;;;;;;;5.30;2.30;;;22.70;51.10;24.00;100779.00;;;;5028358;28;20217;-54
2022/05/12 03:34:06;;;;;;;3.67;2.07;;;22.70;51.10;23.90;100781.00;;;;5033613;28;20182;-56
2022/05/12 03:36:35;;;;;;;2.97;2.10;;;22.70;51.00;24.00;100788.00;;;;5045138;28;20191;-57
2022/05/12 03:39:04;;;;;;;6.27;2.47;;;22.70;50.80;23.90;100797.00;;;;5042221;28;20380;-55
2022/05/12 03:41:31;;;;;;;6.17;3.40;;;22.70;50.80;23.90;100796.00;;;;5032891;28;20171;-55
2022/05/12 03:46:41;;;;;;;5.87;3.90;;;22.70;50.80;23.90;100794.00;;;;5027892;28;20282;-55
2022/05/12 03:49:07;;;;;;;4.37;3.97;;;22.60;50.80;23.90;100805.00;;;;5027525;28;20266;-55
2022/05/12 03:51:33;;;;;;;3.53;2.90;;;22.60;50.80;23.90;100803.00;;;;5028437;28;20225;-54
2022/05/12 03:53:59;;;;;;;4.90;3.10;;;22.60;50.80;23.90;100810.00;;;;5026656;28;20167;-54
2022/05/12 03:56:26;;;;;;;2.77;2.40;;;22.60;50.70;23.90;100813.00;;;;5026473;28;20864;-55
2022/05/12 03:58:51;;;;;;;3.43;2.50;;;22.50;50.60;23.80;100811.00;;;;5027951;28;20193;-55
2022/05/12 04:01:17;;;;;;;2.70;2.20;;;22.60;50.80;23.80;100812.00;;;;5027936;28;20171;-53
2022/05/12 04:03:45;;;;;;;3.43;2.30;;;22.50;50.60;23.80;100814.00;;;;5027944;28;20182;-54
2022/05/12 04:06:11;;;;;;;4.00;2.30;;;22.50;50.70;23.80;100823.00;;;;5025120;28;20195;-54
2022/05/12 04:08:36;;;;;;;3.70;2.40;;;22.50;50.70;23.80;100820.00;;;;5018557;28;20564;-54
2022/05/12 04:11:03;;;;;;;3.37;2.20;;;22.50;50.80;23.70;100836.00;;;;5027292;28;20171;-53
2022/05/12 04:13:29;;;;;;;4.87;2.27;;;22.50;50.80;23.70;100844.00;;;;5026554;28;20171;-53
2022/05/12 04:15:54;;;;;;;3.87;2.13;;;22.40;50.70;23.70;100838.00;;;;5027360;28;20294;-54
2022/05/12 04:18:20;;;;;;;3.77;2.10;;;22.40;50.70;23.70;100844.00;;;;5027119;28;20175;-54
2022/05/12 04:20:46;;;;;;;2.20;2.00;;;22.40;50.70;23.70;100852.00;;;;5026908;28;20571;-54
2022/05/12 04:23:12;;;;;;;2.30;2.10;;;22.40;50.60;23.70;100869.00;;;;5027590;28;20163;-54
2022/05/12 04:25:38;;;;;;;2.93;2.20;;;22.40;50.60;23.70;100863.00;;;;5027410;28;20276;-54
2022/05/12 04:28:04;;;;;;;3.70;2.37;;;22.40;50.50;23.60;100799.00;;;;5027092;28;20229;-53
2022/05/12 04:30:30;;;;;;;4.03;2.17;;;22.40;50.70;23.60;100873.00;;;;5026823;28;20167;-55
2022/05/12 04:35:09;;;;;;;3.17;2.10;;;22.40;50.70;23.60;100863.00;;;;5027290;28;20191;-55
2022/05/12 04:35:41;;;;;;;2.20;2.00;;;22.40;50.70;23.60;100872.00;;;;5027003;28;20209;-55
2022/05/12 04:38:07;;;;;;;3.73;2.30;;;22.40;50.60;23.60;100879.00;;;;5026866;28;20678;-55
2022/05/12 04:40:32;;;;;;;3.93;2.33;;;22.40;50.60;23.60;100882.00;;;;5026577;28;20174;-55
2022/05/12 04:42:59;;;;;;;3.70;2.30;;;22.30;50.50;23.60;100878.00;;;;5026840;28;20179;-55
2022/05/12 04:45:27;;;;;;;2.90;2.20;;;22.40;50.70;23.60;100889.00;;;;5026878;28;20229;-54
2022/05/12 04:47:53;;;;;;;3.60;3.20;;;22.40;50.70;23.60;100893.00;;;;5026654;28;20577;-57
2022/05/12 04:50:31;;;;;;;3.87;3.20;;;22.30;50.70;23.60;100891.00;;;;5026474;28;20203;-55
2022/05/12 04:52:57;;;;;;;4.20;2.60;;;22.30;50.80;23.50;100839.00;;;;5026556;28;20194;-52
2022/05/12 04:55:22;;;;;;;4.00;2.50;;;22.20;50.70;23.50;100905.00;;;;5026489;28;20191;-54
2022/05/12 04:57:56;;;;;;;3.27;2.43;;;22.20;50.70;23.50;100913.00;;;;5024683;28;20528;-55
2022/05/12 05:00:38;;;;;;;3.57;2.30;;;22.20;50.70;23.50;100907.00;;;;5024843;28;20169;-54
2022/05/12 05:03:04;;;;;;;3.30;2.17;;;22.20;50.60;23.50;100910.00;;;;5026273;28;20190;-56
2022/05/12 05:05:30;;;;;;;3.40;2.23;;;22.30;50.60;23.50;100917.00;;;;5026063;28;20289;-56
2022/05/12 05:07:55;;;;;;;3.83;2.23;;;22.30;50.40;23.50;100927.00;;;;5025495;28;20190;-53
2022/05/12 05:10:21;;;;;;;3.77;2.27;;;22.30;50.50;23.40;100921.00;;;;5024454;28;20807;-55
2022/05/12 05:12:47;;;;;;;4.10;2.30;;;22.20;50.50;23.40;100931.00;;;;5026237;28;20203;-54
2022/05/12 05:15:14;;;;;;;2.70;2.10;;;22.20;51.40;23.40;100943.00;;;;5026385;28;20219;-54
2022/05/12 05:17:40;;;;;;;3.77;2.30;;;22.20;50.70;23.40;100937.00;;;;5025990;28;20179;-54
2022/05/12 05:20:10;;;;;;;3.53;2.40;;;22.20;50.80;23.40;100948.00;;;;5025812;28;20198;-54
2022/05/12 05:22:36;;;;;;;3.40;2.20;;;22.20;50.90;23.40;100937.00;;;;5025910;28;20174;-54
2022/05/12 05:25:03;;;;;;;3.10;2.50;;;22.20;50.90;23.40;100956.00;;;;5026315;28;20589;-54
2022/05/12 05:27:29;;;;;;;2.60;2.20;;;22.20;50.80;23.30;100951.00;;;;5024489;28;20645;-54
2022/05/12 05:29:54;;;;;;;2.73;2.20;;;22.20;50.80;23.30;100969.00;;;;5025546;28;20189;-54
2022/05/12 05:32:20;;;;;;;3.47;2.33;;;22.20;50.80;23.30;100973.00;;;;5026134;28;20209;-54
2022/05/12 05:34:46;;;;;;;3.80;2.70;;;22.20;50.80;23.30;100974.00;;;;5025587;28;20199;-54
2022/05/12 05:37:12;;;;;;;4.60;2.80;;;22.20;50.70;23.30;100983.00;;;;5028259;28;20167;-54
2022/05/12 05:39:38;;;;;;;4.27;2.77;;;22.20;50.70;23.20;100968.00;;;;5040135;28;20557;-55
2022/05/12 05:42:09;;;;;;;4.30;3.10;;;22.20;50.60;23.20;100977.00;;;;5039298;28;20358;-55
2022/05/12 05:44:34;;;;;;;3.77;2.77;;;22.10;50.50;23.20;100985.00;;;;5030017;28;20173;-54
2022/05/12 05:47:00;;;;;;;4.73;3.20;;;22.10;50.30;23.20;100925.00;;;;5024943;28;20640;-53
2022/05/12 05:49:27;;;;;;;5.30;2.97;;;22.10;50.10;23.20;100924.00;;;;5025709;28;20174;-54
2022/05/12 05:54:37;;;;;;;4.50;2.90;;;21.80;50.00;23.10;100997.00;;;;5026337;28;20182;-54
2022/05/12 05:57:03;;;;;;;5.60;3.10;;;21.70;50.10;23.10;101002.00;;;;5025353;28;20174;-53
2022/05/12 05:59:28;;;;;;;4.53;2.80;;;21.70;50.30;23.00;101007.00;;;;5025165;28;20655;-54
2022/05/12 06:01:54;;;;;;;4.73;3.00;;;21.70;50.00;23.00;101004.00;;;;5025211;28;20252;-54
2022/05/12 06:04:20;;;;;;;4.57;3.00;;;21.80;50.10;23.00;101016.00;;;;5025483;28;20535;-55
2022/05/12 06:06:46;;;;;;;4.43;3.23;;;21.80;50.00;23.00;101014.00;;;;5025578;28;20179;-55
2022/05/12 06:09:12;;;;;;;5.33;2.70;;;21.70;50.00;23.00;101019.00;;;;5025227;28;20240;-54
2022/05/12 06:11:39;;;;;;;4.50;2.90;;;21.50;50.20;22.90;101024.00;;;;5024812;28;20259;-54
2022/05/12 06:14:04;;;;;;;5.40;3.00;;;21.50;50.40;22.90;101019.00;;;;5007665;28;20163;-54
2022/05/12 06:16:31;;;;;;;5.20;3.33;;;21.50;50.30;22.90;101023.00;;;;5024984;28;20198;-54
2022/05/12 06:18:56;;;;;;;6.80;3.33;;;21.60;50.30;22.90;101028.00;;;;5024885;28;20198;-55
2022/05/12 06:21:22;;;;;;;5.20;2.63;;;21.50;50.20;22.90;101025.00;;;;5024541;28;20477;-54
2022/05/12 06:23:48;;;;;;;5.70;2.80;;;21.60;49.90;22.80;101026.00;;;;5024763;28;20376;-54
2022/05/12 06:26:14;;;;;;;3.77;2.70;;;21.60;49.70;22.80;101033.00;;;;5024864;28;20609;-54
2022/05/12 06:28:45;;;;;;;4.40;2.60;;;21.60;49.80;22.80;101023.00;;;;5024819;28;20213;-54
2022/05/12 06:31:13;;;;;;;3.87;2.60;;;21.60;49.70;22.80;101030.00;;;;5024922;28;20594;-54
2022/05/12 06:33:39;;;;;;;4.40;2.50;;;21.50;49.70;22.80;101040.00;;;;5023768;28;20173;-54
2022/05/12 06:36:05;;;;;;;3.20;2.40;;;21.50;49.80;22.80;101037.00;;;;5024250;28;20265;-54
2022/05/12 06:38:32;;;;;;;2.80;2.30;;;21.60;50.00;22.70;101039.00;;;;5025161;28;20467;-53
2022/05/12 06:40:58;;;;;;;5.30;2.63;;;21.60;50.00;22.80;101041.00;;;;5024484;28;20411;-54
2022/05/12 06:43:23;;;;;;;6.10;2.97;;;21.60;49.90;22.80;101046.00;;;;5025477;28;20367;-54
2022/05/12 06:45:49;;;;;;;3.73;2.33;;;21.60;49.60;22.70;101046.00;;;;5024736;28;20198;-53
2022/05/12 06:48:15;;;;;;;4.63;2.63;;;21.60;49.10;22.70;101048.00;;;;5024536;28;20178;-54
2022/05/12 06:50:41;;;;;;;8.87;3.30;;;21.40;48.90;22.70;101043.00;;;;5024400;28;20590;-55
2022/05/12 06:53:07;;;;;;;6.00;3.20;;;21.40;48.90;22.60;101054.00;;;;5024656;28;20319;-54
2022/05/12 06:55:33;;;;;;;6.80;2.77;;;21.30;48.50;22.60;101050.00;;;;5024708;28;20187;-55
2022/05/12 06:57:58;;;;;;;4.37;2.60;;;21.30;48.90;22.60;101056.00;;;;5024682;28;20221;-54
2022/05/12 07:00:24;;;;;;;4.10;2.50;;;21.30;48.90;22.60;101057.00;;;;5024477;28;20196;-54
2022/05/12 07:02:51;;;;;;;5.50;2.57;;;21.30;49.10;22.50;101058.00;;;;5024752;28;20193;-54
2022/05/12 07:05:21;;;;;;;4.63;2.70;;;21.20;49.00;22.50;101064.00;;;;5024702;28;20206;-55
2022/05/12 07:07:46;;;;;;;5.70;2.77;;;21.00;49.00;22.50;101059.00;;;;5024781;28;20178;-54
2022/05/12 07:10:13;;;;;;;4.10;2.53;;;20.90;49.00;22.40;101060.00;;;;5024422;28;20642;-54
2022/05/12 07:12:41;;;;;;;3.93;2.53;;;20.90;49.20;22.40;101058.00;;;;5023440;28;20229;-59
2022/05/12 07:15:08;;;;;;;5.17;2.73;;;20.90;49.30;22.30;101054.00;;;;5024680;28;20235;-54
2022/05/12 07:17:37;;;;;;;4.50;2.50;;;20.80;49.40;22.30;101056.00;;;;5024596;28;20182;-53
2022/05/12 07:28:17;;;;;;;6.73;2.97;;;21.10;49.50;22.30;101059.00;;;;5022368;28;20181;-54
2022/05/12 07:31:01;;;;;;;6.60;2.80;;;21.20;49.80;22.30;101063.00;;;;5024228;28;20309;-54
2022/05/12 07:33:44;;;;;;;5.70;2.83;;;21.20;49.40;22.30;101070.00;;;;5028037;28;20205;-55
2022/05/12 07:36:19;;;;;;;2.70;2.30;;;21.20;49.50;22.30;101067.00;;;;5028501;28;20215;-54
2022/05/12 07:38:45;;;;;;;3.43;2.10;;;21.20;49.70;22.30;101056.00;;;;5028295;28;20164;-53
2022/05/12 07:41:12;;;;;;;4.60;2.40;;;21.30;49.60;22.30;101064.00;;;;5029891;28;20555;-52
2022/05/12 07:43:41;;;;;;;3.23;2.27;;;21.40;50.00;21.80;101057.00;;;;5036851;28;20193;-52
2022/05/12 07:46:08;;;;;;;3.00;1.90;;;21.40;49.80;22.30;101069.00;;;;5040115;28;20256;-53
2022/05/12 07:48:34;;;;;;;3.17;2.20;;;21.40;49.90;22.30;101072.00;;;;5028332;28;20257;-52
2022/05/12 07:50:59;;;;;;;3.17;2.10;;;21.40;50.00;22.30;101074.00;;;;5028507;28;20158;-52
2022/05/12 07:53:25;;;;;;;2.53;2.00;;;21.50;50.10;22.30;101077.00;;;;5028688;28;20204;-53
2022/05/12 07:55:51;;;;;;;4.03;1.97;;;21.50;50.00;22.40;101086.00;;;;5027977;28;20580;-52
2022/05/12 07:58:17;;;;;;;2.30;1.80;;;21.50;50.60;22.40;101088.00;;;;5027932;28;20250;-52
2022/05/12 08:00:43;;;;;;;3.33;1.90;;;21.50;50.00;22.40;101091.00;;;;5027971;28;20191;-52
2022/05/12 08:03:09;;;;;;;2.50;1.90;;;21.60;50.00;22.40;101102.00;;;;5026329;28;20190;-53
2022/05/12 08:05:36;;;;;;;2.67;1.80;;;21.60;50.00;22.50;101103.00;;;;5023481;28;20870;-52
2022/05/12 08:08:04;;;;;;;2.53;1.97;;;21.60;50.20;22.50;101092.00;;;;4930756;28;20361;-53
2022/05/12 08:10:29;;;;;;;4.27;2.00;;;21.60;50.30;22.50;101100.00;;;;5027433;28;20184;-53
2022/05/12 08:12:56;;;;;;;2.83;1.80;;;21.60;50.40;22.50;101110.00;;;;5027647;28;20573;-53
2022/05/12 08:15:25;;;;;;;2.40;1.90;;;21.60;50.50;22.50;101105.00;;;;5027205;28;20680;-53
2022/05/12 08:17:52;;;;;;;2.00;1.80;;;21.70;50.50;22.50;101114.00;;;;5026134;28;20198;-53
2022/05/12 08:20:17;;;;;;;2.87;1.77;;;21.70;50.50;22.50;101110.00;;;;5027211;28;20174;-52
2022/05/12 08:22:43;;;;;;;3.93;2.07;;;21.70;50.80;22.50;101109.00;;;;5027278;28;20174;-52
2022/05/12 08:25:09;;;;;;;3.07;1.90;;;21.70;50.80;22.60;101107.00;;;;5027203;28;20187;-52
2022/05/12 08:27:35;;;;;;;3.50;1.90;;;21.70;50.80;22.60;101105.00;;;;5026739;28;20201;-52
2022/05/12 08:30:01;;;;;;;3.00;2.13;;;21.70;50.90;22.60;101108.00;;;;5027119;28;20629;-53
2022/05/12 08:32:26;;;;;;;2.37;1.87;;;21.70;51.20;22.60;101111.00;;;;5025697;28;20691;-53
2022/05/12 08:34:52;;;;;;;2.53;1.80;;;21.70;51.20;22.60;101121.00;;;;5027054;28;20316;-52
2022/05/12 08:37:18;;;;;;;2.77;1.80;;;21.70;51.40;22.60;101123.00;;;;5026962;28;20182;-52
2022/05/12 08:39:45;;;;;;;3.83;1.90;;;21.70;51.30;22.60;101121.00;;;;5026952;28;20175;-52
2022/05/12 08:42:38;;;;;;;2.70;1.80;;;21.70;51.80;22.60;101131.00;;;;5026786;28;20186;-52
2022/05/12 08:45:05;;;;;;;2.17;1.90;;;21.70;51.60;22.60;101109.00;;;;5025845;28;20191;-52
2022/05/12 08:47:34;;;;;;;2.53;1.80;;;21.70;51.90;22.60;101129.00;;;;5025057;28;20163;-51
2022/05/12 08:50:00;;;;;;;2.67;2.00;;;21.70;52.00;22.60;101126.00;;;;5026980;28;20175;-52
2022/05/12 08:52:31;;;;;;;3.17;2.00;;;21.70;51.80;22.60;101129.00;;;;5026602;28;20194;-52
2022/05/12 08:55:27;;;;;;;3.17;2.00;;;21.70;51.90;22.60;101128.00;;;;5026106;28;20195;-52
2022/05/12 08:57:58;;;;;;;3.73;2.00;;;21.70;52.20;22.60;101133.00;;;;5025741;28;20151;-52
2022/05/12 09:00:25;;;;;;;4.63;2.00;;;21.70;52.20;22.60;101135.00;;;;5025103;28;20254;-54
2022/05/12 09:03:38;;;;;;;4.13;2.00;;;21.70;52.30;22.70;101131.00;;;;5025529;28;20185;-54
2022/05/12 09:06:19;;;;;;;3.83;2.20;;;21.70;52.30;22.50;101133.00;;;;5024632;28;20286;-53
2022/05/12 09:09:03;;;;;;;4.93;2.20;;;21.70;52.40;22.70;101132.00;;;;4963599;28;20166;-53
2022/05/12 09:11:47;;;;;;;5.27;2.37;;;21.70;52.50;22.70;101133.00;;;;5024243;28;20167;-51
2022/05/12 09:14:42;;;;;;;6.57;2.00;;;21.70;52.60;22.70;101118.00;;;;5025051;28;20185;-52
2022/05/12 09:17:22;;;;;;;5.53;2.50;;;21.70;52.50;22.70;101121.00;;;;5024326;28;20262;-51
2022/05/12 09:19:48;;;;;;;3.27;2.00;;;21.70;52.60;22.70;101127.00;;;;5024664;28;20160;-52
2022/05/12 09:22:14;;;;;;;5.00;2.23;;;21.70;52.70;22.70;101121.00;;;;5025881;28;20173;-52
2022/05/12 09:24:39;;;;;;;4.17;1.97;;;21.70;52.70;22.70;101119.00;;;;5024894;28;20174;-53
2022/05/12 09:27:11;;;;;;;3.33;1.90;;;21.70;52.70;22.70;101129.00;;;;5024905;28;20179;-54
2022/05/12 09:29:48;;;;;;;2.73;1.97;;;21.70;52.70;22.70;101121.00;;;;5025535;28;20177;-53
2022/05/12 09:32:14;;;;;;;2.20;2.00;;;21.70;52.80;22.70;101119.00;;;;5026132;28;20217;-52
2022/05/12 09:34:43;;;;;;;2.20;1.93;;;21.70;52.80;22.80;101127.00;;;;5042521;28;20178;-52
2022/05/12 09:37:26;;;;;;;2.97;2.13;;;21.80;52.80;22.80;101120.00;;;;5036193;28;20174;-52
2022/05/12 09:40:16;;;;;;;2.57;2.10;;;21.70;52.70;22.80;101122.00;;;;5027300;28;20158;-53
2022/05/12 09:42:53;;;;;;;2.27;1.90;;;21.80;52.90;22.80;101119.00;;;;5021232;28;20194;-53
2022/05/12 09:45:27;;;;;;;2.23;2.03;;;21.80;52.90;22.80;101125.00;;;;5024731;28;20975;-52
2022/05/12 09:48:20;;;;;;;2.30;2.00;;;21.80;52.90;22.80;101113.00;;;;5026232;28;20162;-53
2022/05/12 09:50:47;;;;;;;2.20;2.00;;;21.80;52.90;22.80;101113.00;;;;5024794;28;20177;-51
2022/05/12 09:53:13;;;;;;;1.80;1.70;;;21.80;52.90;22.80;101113.00;;;;5025817;28;20225;-54
2022/05/12 09:55:42;;;;;;;2.10;1.90;;;21.80;52.90;22.80;101114.00;;;;5024038;28;20199;-52
2022/05/12 09:58:14;;;;;;;2.03;1.90;;;21.80;52.80;22.80;101115.00;;;;5024685;28;20270;-52
2022/05/12 10:00:48;;;;;;;2.67;2.00;;;21.80;52.80;22.80;101112.00;;;;5025305;28;20228;-52
2022/05/12 10:09:13;;;;;;;2.47;1.93;;;21.90;52.90;22.90;101104.00;;;;5054482;28;20176;-54
2022/05/12 10:11:48;;;;;;;2.20;2.00;;;21.90;52.80;22.90;101103.00;;;;5046001;28;20665;-52
2022/05/12 10:14:50;;;;;;;2.27;2.07;;;21.90;52.70;22.90;101107.00;;;;5046251;28;20170;-55
2022/05/12 10:17:39;;;;;;;2.00;1.90;;;21.90;52.80;22.90;101103.00;;;;5029627;28;20587;-52
2022/05/12 10:20:18;;;;;;;2.07;1.90;;;21.90;52.90;22.90;101096.00;;;;5045081;28;20707;-53
2022/05/12 10:23:17;;;;;;;2.30;1.90;;;22.00;53.00;22.90;101082.00;;;;5046335;28;20662;-51
2022/05/12 10:26:07;;;;;;;2.20;2.00;;;21.90;52.90;22.90;101080.00;;;;5025916;28;20187;-52
2022/05/12 10:29:02;;;;;;;2.77;1.67;;;22.00;53.00;22.90;101079.00;;;;5025325;28;20241;-52
2022/05/12 10:32:07;;;;;;;2.23;1.80;;;22.00;53.00;22.90;101091.00;;;;5012740;28;20523;-52
2022/05/12 10:34:44;;;;;;;1.97;1.80;;;22.00;52.90;22.90;101083.00;;;;5025398;28;20251;-52
2022/05/12 10:37:38;;;;;;;2.03;1.90;;;22.00;52.90;22.90;101088.00;;;;5008688;28;20151;-52
2022/05/12 10:40:29;;;;;;;1.93;1.80;;;22.00;53.00;22.90;101093.00;;;;5009478;28;20191;-52
2022/05/12 10:43:45;;;;;;;2.20;1.90;;;22.00;53.00;23.00;101080.00;;;;5024955;28;20170;-53
2022/05/12 10:46:33;;;;;;;2.43;1.90;;;22.00;53.20;23.00;101084.00;;;;5026295;28;20199;-53
2022/05/12 10:49:18;;;;;;;3.10;1.90;;;22.10;53.00;23.00;101082.00;;;;5025850;28;20184;-52
2022/05/12 10:52:24;;;;;;;2.00;1.90;;;22.10;53.00;23.00;101083.00;;;;5024943;28;20317;-51
2022/05/12 10:55:08;;;;;;;2.23;1.70;;;22.10;53.10;23.00;101075.00;;;;5025018;28;20187;-53
2022/05/12 10:58:19;;;;;;;4.80;2.20;;;22.10;53.20;23.00;101087.00;;;;5024653;28;20166;-52
2022/05/12 11:01:18;;;;;;;3.80;2.07;;;22.10;53.50;23.00;101079.00;;;;5032869;28;20214;-52
2022/05/12 11:03:59;;;;;;;3.00;2.10;;;22.20;53.60;23.00;101068.00;;;;5034265;28;20257;-53
2022/05/12 11:06:36;;;;;;;3.20;1.90;;;22.20;53.60;23.00;101077.00;;;;5010977;28;20193;-51
2022/05/12 11:09:16;;;;;;;7.17;2.17;;;22.20;53.50;23.10;101074.00;;;;5025537;28;20160;-52
2022/05/12 11:11:45;;;;;;;3.73;1.97;;;22.20;53.60;23.10;101078.00;;;;5027697;28;20203;-53
2022/05/12 11:14:41;;;;;;;3.67;2.20;;;22.20;53.80;23.10;101069.00;;;;5028593;28;20220;-52
2022/05/12 11:17:14;;;;;;;5.60;1.90;;;22.30;53.90;23.10;101063.00;;;;4945739;28;22428;-51
2022/05/12 11:19:47;;;;;;;4.43;2.10;;;22.20;54.00;23.10;101059.00;;;;5032531;28;20266;-53